sensor_id;sensor_type;location;lat;lon;timestamp;P1;durP1;ratioP1;P2;durP2;ratioP2
44486;SDS011;30191;50.908;6.962;2023-11-19T12:17:13;12.43;;;2.53;;
44486;SDS011;30191;50.908;6.962;2023-11-19T12:20:02;14.75;;;3.13;;
44486;SDS011;30191;50.908;6.962;2023-11-19T12:22:40;15.63;;;3.08;;
44486;SDS011;30191;50.908;6.962;2023-11-19T12:25:07;14.75;;;2.67;;
44486;SDS011;30191;50.908;6.962;2023-11-19T12:27:34;15.95;;;2.90;;
44486;SDS011;30191;50.908;6.962;2023-11-19T12:30:03;14.02;;;3.28;;
44486;SDS011;30191;50.908;6.962;2023-11-19T12:35:05;16.33;;;3.08;;
44486;SDS011;30191;50.908;6.962;2023-11-19T12:37:31;15.88;;;2.90;;
44486;SDS011;30191;50.908;6.962;2023-11-19T12:39:57;13.38;;;2.58;;
44486;SDS011;30191;50.908;6.962;2023-11-19T12:42:38;17.20;;;2.70;;
44486;SDS011;30191;50.908;6.962;2023-11-19T12:45:05;17.65;;;2.83;;
44486;SDS011;30191;50.908;6.962;2023-11-19T12:47:30;15.57;;;2.78;;
44486;SDS011;30191;50.908;6.962;2023-11-19T12:49:56;14.25;;;2.42;;
44486;SDS011;30191;50.908;6.962;2023-11-19T12:52:22;13.27;;;2.50;;
44486;SDS011;30191;50.908;6.962;2023-11-19T12:54:48;13.75;;;2.45;;
44486;SDS011;30191;50.908;6.962;2023-11-19T12:57:15;13.98;;;2.30;;
44486;SDS011;30191;50.908;6.962;2023-11-19T12:59:41;12.32;;;2.67;;
44486;SDS011;30191;50.908;6.962;2023-11-19T13:02:08;13.52;;;2.78;;
44486;SDS011;30191;50.908;6.962;2023-11-19T13:04:33;11.63;;;2.38;;
44486;SDS011;30191;50.908;6.962;2023-11-19T13:06:59;14.85;;;2.65;;
44486;SDS011;30191;50.908;6.962;2023-11-19T13:09:26;14.38;;;2.35;;
44486;SDS011;30191;50.908;6.962;2023-11-19T13:11:55;12.52;;;2.60;;
44486;SDS011;30191;50.908;6.962;2023-11-19T13:14:22;11.52;;;2.63;;
44486;SDS011;30191;50.908;6.962;2023-11-19T13:16:48;14.02;;;2.55;;
44486;SDS011;30191;50.908;6.962;2023-11-19T13:19:15;20.20;;;3.38;;
44486;SDS011;30191;50.908;6.962;2023-11-19T13:21:44;16.20;;;2.65;;
44486;SDS011;30191;50.908;6.962;2023-11-19T13:24:12;18.05;;;3.38;;
44486;SDS011;30191;50.908;6.962;2023-11-19T13:26:38;14.35;;;3.25;;
44486;SDS011;30191;50.908;6.962;2023-11-19T13:29:04;19.77;;;3.10;;
44486;SDS011;30191;50.908;6.962;2023-11-19T13:31:29;15.52;;;2.90;;
44486;SDS011;30191;50.908;6.962;2023-11-19T13:33:55;16.08;;;3.03;;
44486;SDS011;30191;50.908;6.962;2023-11-19T13:36:23;18.73;;;3.47;;
44486;SDS011;30191;50.908;6.962;2023-11-19T13:38:49;15.82;;;3.25;;
44486;SDS011;30191;50.908;6.962;2023-11-19T13:41:15;14.82;;;2.97;;
44486;SDS011;30191;50.908;6.962;2023-11-19T13:43:40;17.42;;;3.15;;
44486;SDS011;30191;50.908;6.962;2023-11-19T13:46:06;15.35;;;2.90;;
44486;SDS011;30191;50.908;6.962;2023-11-19T13:48:35;22.20;;;3.50;;
44486;SDS011;30191;50.908;6.962;2023-11-19T13:51:00;14.68;;;2.95;;
44486;SDS011;30191;50.908;6.962;2023-11-19T13:53:26;18.70;;;3.58;;
44486;SDS011;30191;50.908;6.962;2023-11-19T13:55:51;15.60;;;3.28;;
44486;SDS011;30191;50.908;6.962;2023-11-19T13:58:18;17.17;;;3.70;;
44486;SDS011;30191;50.908;6.962;2023-11-19T14:00:43;17.13;;;2.88;;
44486;SDS011;30191;50.908;6.962;2023-11-19T14:03:09;14.32;;;3.00;;
44486;SDS011;30191;50.908;6.962;2023-11-19T14:05:36;19.48;;;3.47;;
44486;SDS011;30191;50.908;6.962;2023-11-19T14:08:02;17.75;;;3.10;;
44486;SDS011;30191;50.908;6.962;2023-11-19T14:10:36;16.05;;;2.85;;
44486;SDS011;30191;50.908;6.962;2023-11-19T14:13:04;13.35;;;2.92;;
44486;SDS011;30191;50.908;6.962;2023-11-19T14:15:30;14.13;;;2.95;;
44486;SDS011;30191;50.908;6.962;2023-11-19T14:17:56;13.55;;;2.90;;
44486;SDS011;30191;50.908;6.962;2023-11-19T14:20:21;19.17;;;3.60;;
44486;SDS011;30191;50.908;6.962;2023-11-19T14:22:47;18.45;;;2.97;;
44486;SDS011;30191;50.908;6.962;2023-11-19T14:25:14;18.50;;;3.47;;
44486;SDS011;30191;50.908;6.962;2023-11-19T14:27:40;13.30;;;2.63;;
44486;SDS011;30191;50.908;6.962;2023-11-19T14:30:08;18.35;;;3.03;;
44486;SDS011;30191;50.908;6.962;2023-11-19T14:35:05;13.75;;;2.67;;
44486;SDS011;30191;50.908;6.962;2023-11-19T14:37:31;17.30;;;2.97;;
44486;SDS011;30191;50.908;6.962;2023-11-19T14:39:57;15.88;;;2.70;;
44486;SDS011;30191;50.908;6.962;2023-11-19T14:42:24;11.65;;;2.55;;
44486;SDS011;30191;50.908;6.962;2023-11-19T14:44:50;12.98;;;2.63;;
44486;SDS011;30191;50.908;6.962;2023-11-19T14:47:18;12.40;;;2.60;;
44486;SDS011;30191;50.908;6.962;2023-11-19T14:49:44;15.20;;;2.60;;
44486;SDS011;30191;50.908;6.962;2023-11-19T14:52:09;15.32;;;2.83;;
44486;SDS011;30191;50.908;6.962;2023-11-19T14:54:36;20.42;;;2.50;;
44486;SDS011;30191;50.908;6.962;2023-11-19T14:57:01;13.52;;;2.47;;
44486;SDS011;30191;50.908;6.962;2023-11-19T14:59:28;16.80;;;2.67;;
44486;SDS011;30191;50.908;6.962;2023-11-19T15:01:53;17.98;;;2.97;;
44486;SDS011;30191;50.908;6.962;2023-11-19T15:04:19;15.40;;;3.10;;
44486;SDS011;30191;50.908;6.962;2023-11-19T15:06:45;13.52;;;3.03;;
44486;SDS011;30191;50.908;6.962;2023-11-19T15:09:11;15.90;;;3.22;;
44486;SDS011;30191;50.908;6.962;2023-11-19T15:11:42;19.13;;;3.17;;
44486;SDS011;30191;50.908;6.962;2023-11-19T15:14:11;14.38;;;2.78;;
44486;SDS011;30191;50.908;6.962;2023-11-19T15:16:41;16.75;;;2.88;;
44486;SDS011;30191;50.908;6.962;2023-11-19T15:19:07;12.95;;;3.03;;
44486;SDS011;30191;50.908;6.962;2023-11-19T15:21:34;13.77;;;3.40;;
44486;SDS011;30191;50.908;6.962;2023-11-19T15:23:59;20.92;;;3.92;;
44486;SDS011;30191;50.908;6.962;2023-11-19T15:26:25;12.48;;;2.88;;
44486;SDS011;30191;50.908;6.962;2023-11-19T15:28:51;16.77;;;3.30;;
44486;SDS011;30191;50.908;6.962;2023-11-19T15:31:21;14.25;;;3.60;;
44486;SDS011;30191;50.908;6.962;2023-11-19T15:33:47;15.70;;;3.28;;
44486;SDS011;30191;50.908;6.962;2023-11-19T15:36:13;18.65;;;3.78;;
44486;SDS011;30191;50.908;6.962;2023-11-19T15:38:39;18.40;;;3.22;;
44486;SDS011;30191;50.908;6.962;2023-11-19T15:41:05;18.73;;;3.42;;
44486;SDS011;30191;50.908;6.962;2023-11-19T15:43:32;17.17;;;3.35;;
44486;SDS011;30191;50.908;6.962;2023-11-19T15:45:58;20.23;;;3.65;;
44486;SDS011;30191;50.908;6.962;2023-11-19T15:48:24;17.65;;;3.38;;
44486;SDS011;30191;50.908;6.962;2023-11-19T15:50:51;15.90;;;3.17;;
44486;SDS011;30191;50.908;6.962;2023-11-19T15:53:17;15.68;;;2.55;;
44486;SDS011;30191;50.908;6.962;2023-11-19T15:55:43;23.27;;;3.72;;
44486;SDS011;30191;50.908;6.962;2023-11-19T15:58:09;13.27;;;2.58;;
44486;SDS011;30191;50.908;6.962;2023-11-19T16:00:35;20.83;;;3.33;;
44486;SDS011;30191;50.908;6.962;2023-11-19T16:03:01;17.48;;;3.60;;
44486;SDS011;30191;50.908;6.962;2023-11-19T16:05:27;18.70;;;3.28;;
44486;SDS011;30191;50.908;6.962;2023-11-19T16:07:53;14.38;;;2.75;;
44486;SDS011;30191;50.908;6.962;2023-11-19T16:10:19;15.57;;;2.95;;
44486;SDS011;30191;50.908;6.962;2023-11-19T16:12:47;18.17;;;3.05;;
44486;SDS011;30191;50.908;6.962;2023-11-19T16:15:13;15.57;;;3.00;;
44486;SDS011;30191;50.908;6.962;2023-11-19T16:17:42;21.00;;;3.17;;
44486;SDS011;30191;50.908;6.962;2023-11-19T16:20:08;18.63;;;3.25;;
44486;SDS011;30191;50.908;6.962;2023-11-19T16:22:38;17.92;;;3.53;;
44486;SDS011;30191;50.908;6.962;2023-11-19T16:25:04;15.18;;;3.22;;
44486;SDS011;30191;50.908;6.962;2023-11-19T16:27:31;15.80;;;3.17;;
44486;SDS011;30191;50.908;6.962;2023-11-19T16:29:57;14.57;;;3.00;;
44486;SDS011;30191;50.908;6.962;2023-11-19T16:32:23;20.98;;;3.65;;
44486;SDS011;30191;50.908;6.962;2023-11-19T16:34:49;15.13;;;3.47;;
44486;SDS011;30191;50.908;6.962;2023-11-19T16:37:16;16.83;;;3.03;;
44486;SDS011;30191;50.908;6.962;2023-11-19T16:39:42;15.13;;;3.40;;
44486;SDS011;30191;50.908;6.962;2023-11-19T16:42:09;14.43;;;3.03;;
44486;SDS011;30191;50.908;6.962;2023-11-19T16:44:35;14.38;;;3.00;;
44486;SDS011;30191;50.908;6.962;2023-11-19T16:47:00;16.10;;;3.03;;
44486;SDS011;30191;50.908;6.962;2023-11-19T16:49:26;17.85;;;3.42;;
44486;SDS011;30191;50.908;6.962;2023-11-19T16:51:52;13.30;;;3.00;;
44486;SDS011;30191;50.908;6.962;2023-11-19T16:54:18;18.85;;;3.42;;
44486;SDS011;30191;50.908;6.962;2023-11-19T16:56:44;13.65;;;3.13;;
44486;SDS011;30191;50.908;6.962;2023-11-19T16:59:10;17.23;;;3.58;;
44486;SDS011;30191;50.908;6.962;2023-11-19T17:01:36;18.10;;;3.17;;
44486;SDS011;30191;50.908;6.962;2023-11-19T17:04:05;16.85;;;4.10;;
44486;SDS011;30191;50.908;6.962;2023-11-19T17:06:32;16.90;;;3.38;;
44486;SDS011;30191;50.908;6.962;2023-11-19T17:08:59;14.38;;;3.03;;
44486;SDS011;30191;50.908;6.962;2023-11-19T17:11:24;15.20;;;3.05;;
44486;SDS011;30191;50.908;6.962;2023-11-19T17:13:50;20.58;;;3.60;;
44486;SDS011;30191;50.908;6.962;2023-11-19T17:16:16;18.13;;;3.20;;
44486;SDS011;30191;50.908;6.962;2023-11-19T17:18:42;15.60;;;2.65;;
44486;SDS011;30191;50.908;6.962;2023-11-19T17:21:08;16.65;;;3.55;;
44486;SDS011;30191;50.908;6.962;2023-11-19T17:23:34;17.67;;;3.40;;
44486;SDS011;30191;50.908;6.962;2023-11-19T17:25:59;19.75;;;3.33;;
44486;SDS011;30191;50.908;6.962;2023-11-19T17:28:25;14.55;;;2.90;;
44486;SDS011;30191;50.908;6.962;2023-11-19T17:30:51;22.35;;;3.80;;
44486;SDS011;30191;50.908;6.962;2023-11-19T17:33:17;17.98;;;3.33;;
44486;SDS011;30191;50.908;6.962;2023-11-19T17:35:43;13.77;;;3.45;;
44486;SDS011;30191;50.908;6.962;2023-11-19T17:38:09;20.08;;;3.28;;
44486;SDS011;30191;50.908;6.962;2023-11-19T17:40:34;16.73;;;3.13;;
44486;SDS011;30191;50.908;6.962;2023-11-19T17:43:01;17.85;;;3.22;;
44486;SDS011;30191;50.908;6.962;2023-11-19T17:45:26;16.50;;;3.40;;
44486;SDS011;30191;50.908;6.962;2023-11-19T17:47:53;15.25;;;3.30;;
44486;SDS011;30191;50.908;6.962;2023-11-19T17:50:18;18.63;;;3.25;;
44486;SDS011;30191;50.908;6.962;2023-11-19T17:52:48;19.40;;;3.25;;
44486;SDS011;30191;50.908;6.962;2023-11-19T17:55:14;17.48;;;3.38;;
44486;SDS011;30191;50.908;6.962;2023-11-19T17:57:40;17.98;;;3.00;;
44486;SDS011;30191;50.908;6.962;2023-11-19T18:00:09;17.58;;;3.45;;
44486;SDS011;30191;50.908;6.962;2023-11-19T18:02:43;19.67;;;3.55;;
44486;SDS011;30191;50.908;6.962;2023-11-19T18:05:13;16.75;;;2.45;;
44486;SDS011;30191;50.908;6.962;2023-11-19T18:07:40;17.27;;;3.00;;
44486;SDS011;30191;50.908;6.962;2023-11-19T18:10:08;16.20;;;3.35;;
44486;SDS011;30191;50.908;6.962;2023-11-19T18:12:35;19.05;;;3.53;;
44486;SDS011;30191;50.908;6.962;2023-11-19T18:15:08;13.32;;;3.28;;
44486;SDS011;30191;50.908;6.962;2023-11-19T18:17:37;18.88;;;3.25;;
44486;SDS011;30191;50.908;6.962;2023-11-19T18:20:06;20.45;;;3.05;;
44486;SDS011;30191;50.908;6.962;2023-11-19T18:22:36;13.32;;;2.55;;
44486;SDS011;30191;50.908;6.962;2023-11-19T18:25:03;17.80;;;2.83;;
44486;SDS011;30191;50.908;6.962;2023-11-19T18:27:30;11.88;;;3.05;;
44486;SDS011;30191;50.908;6.962;2023-11-19T18:29:57;16.88;;;3.13;;
44486;SDS011;30191;50.908;6.962;2023-11-19T18:32:22;14.55;;;2.63;;
44486;SDS011;30191;50.908;6.962;2023-11-19T18:34:48;11.63;;;2.17;;
44486;SDS011;30191;50.908;6.962;2023-11-19T18:37:14;11.98;;;2.25;;
44486;SDS011;30191;50.908;6.962;2023-11-19T18:39:40;11.00;;;2.38;;
44486;SDS011;30191;50.908;6.962;2023-11-19T18:42:05;10.85;;;2.15;;
44486;SDS011;30191;50.908;6.962;2023-11-19T18:44:31;12.57;;;2.33;;
44486;SDS011;30191;50.908;6.962;2023-11-19T18:46:57;13.70;;;2.50;;
44486;SDS011;30191;50.908;6.962;2023-11-19T18:49:24;14.75;;;2.78;;
44486;SDS011;30191;50.908;6.962;2023-11-19T18:51:49;12.05;;;2.33;;
44486;SDS011;30191;50.908;6.962;2023-11-19T18:54:15;17.35;;;2.55;;
44486;SDS011;30191;50.908;6.962;2023-11-19T18:56:43;12.38;;;2.33;;
44486;SDS011;30191;50.908;6.962;2023-11-19T18:59:09;13.45;;;2.17;;
44486;SDS011;30191;50.908;6.962;2023-11-19T19:01:37;15.93;;;2.58;;
44486;SDS011;30191;50.908;6.962;2023-11-19T19:04:03;15.02;;;2.88;;
44486;SDS011;30191;50.908;6.962;2023-11-19T19:06:31;9.68;;;2.30;;
44486;SDS011;30191;50.908;6.962;2023-11-19T19:08:58;14.13;;;2.78;;
44486;SDS011;30191;50.908;6.962;2023-11-19T19:11:23;14.55;;;2.95;;
44486;SDS011;30191;50.908;6.962;2023-11-19T19:13:49;12.35;;;2.47;;
44486;SDS011;30191;50.908;6.962;2023-11-19T19:16:15;12.70;;;2.65;;
44486;SDS011;30191;50.908;6.962;2023-11-19T19:18:40;14.38;;;2.38;;
44486;SDS011;30191;50.908;6.962;2023-11-19T19:21:07;13.48;;;2.10;;
44486;SDS011;30191;50.908;6.962;2023-11-19T19:23:33;14.70;;;3.13;;
44486;SDS011;30191;50.908;6.962;2023-11-19T19:25:58;18.08;;;3.00;;
44486;SDS011;30191;50.908;6.962;2023-11-19T19:28:25;14.25;;;2.42;;
44486;SDS011;30191;50.908;6.962;2023-11-19T19:30:51;9.65;;;2.17;;
44486;SDS011;30191;50.908;6.962;2023-11-19T19:33:17;10.65;;;2.35;;
44486;SDS011;30191;50.908;6.962;2023-11-19T19:35:43;9.43;;;1.90;;
44486;SDS011;30191;50.908;6.962;2023-11-19T19:38:09;10.13;;;2.42;;
44486;SDS011;30191;50.908;6.962;2023-11-19T19:40:35;10.98;;;1.98;;
44486;SDS011;30191;50.908;6.962;2023-11-19T19:43:00;11.32;;;1.88;;
44486;SDS011;30191;50.908;6.962;2023-11-19T19:45:28;10.90;;;2.42;;
44486;SDS011;30191;50.908;6.962;2023-11-19T19:47:55;8.18;;;1.75;;
44486;SDS011;30191;50.908;6.962;2023-11-19T19:50:22;9.77;;;1.90;;
44486;SDS011;30191;50.908;6.962;2023-11-19T19:52:48;8.98;;;1.60;;
44486;SDS011;30191;50.908;6.962;2023-11-19T19:55:14;10.30;;;1.58;;
44486;SDS011;30191;50.908;6.962;2023-11-19T19:57:43;9.23;;;2.28;;
44486;SDS011;30191;50.908;6.962;2023-11-19T20:00:09;9.43;;;2.58;;
44486;SDS011;30191;50.908;6.962;2023-11-19T20:02:38;8.70;;;1.80;;
44486;SDS011;30191;50.908;6.962;2023-11-19T20:05:11;7.95;;;1.88;;
44486;SDS011;30191;50.908;6.962;2023-11-19T20:07:38;8.50;;;2.17;;
44486;SDS011;30191;50.908;6.962;2023-11-19T20:10:04;12.68;;;2.15;;
44486;SDS011;30191;50.908;6.962;2023-11-19T20:12:31;12.77;;;2.03;;
44486;SDS011;30191;50.908;6.962;2023-11-19T20:14:57;13.18;;;2.35;;
44486;SDS011;30191;50.908;6.962;2023-11-19T20:17:26;7.05;;;1.58;;
44486;SDS011;30191;50.908;6.962;2023-11-19T20:19:53;7.97;;;1.52;;
44486;SDS011;30191;50.908;6.962;2023-11-19T20:22:18;8.13;;;1.92;;
44486;SDS011;30191;50.908;6.962;2023-11-19T20:24:44;6.80;;;1.92;;
44486;SDS011;30191;50.908;6.962;2023-11-19T20:27:09;9.95;;;2.17;;
44486;SDS011;30191;50.908;6.962;2023-11-19T20:29:41;12.25;;;1.70;;
44486;SDS011;30191;50.908;6.962;2023-11-19T20:32:09;13.05;;;2.20;;
44486;SDS011;30191;50.908;6.962;2023-11-19T20:34:35;12.48;;;2.33;;
44486;SDS011;30191;50.908;6.962;2023-11-19T20:37:00;7.50;;;2.00;;
44486;SDS011;30191;50.908;6.962;2023-11-19T20:39:26;10.25;;;1.70;;
44486;SDS011;30191;50.908;6.962;2023-11-19T20:41:53;7.63;;;1.83;;
44486;SDS011;30191;50.908;6.962;2023-11-19T20:44:19;9.55;;;1.85;;
44486;SDS011;30191;50.908;6.962;2023-11-19T20:46:45;10.98;;;1.67;;
44486;SDS011;30191;50.908;6.962;2023-11-19T20:49:11;9.18;;;1.95;;
44486;SDS011;30191;50.908;6.962;2023-11-19T20:51:37;11.13;;;2.05;;
44486;SDS011;30191;50.908;6.962;2023-11-19T20:54:03;6.15;;;1.50;;
44486;SDS011;30191;50.908;6.962;2023-11-19T20:56:28;6.55;;;1.45;;
44486;SDS011;30191;50.908;6.962;2023-11-19T20:58:54;6.85;;;1.63;;
44486;SDS011;30191;50.908;6.962;2023-11-19T21:01:20;12.13;;;1.70;;
44486;SDS011;30191;50.908;6.962;2023-11-19T21:03:46;12.63;;;2.15;;
44486;SDS011;30191;50.908;6.962;2023-11-19T21:06:12;11.70;;;2.15;;
44486;SDS011;30191;50.908;6.962;2023-11-19T21:08:41;7.65;;;1.67;;
44486;SDS011;30191;50.908;6.962;2023-11-19T21:11:10;7.43;;;1.58;;
44486;SDS011;30191;50.908;6.962;2023-11-19T21:13:36;10.45;;;1.83;;
44486;SDS011;30191;50.908;6.962;2023-11-19T21:16:01;8.70;;;1.70;;
44486;SDS011;30191;50.908;6.962;2023-11-19T21:18:27;8.73;;;1.95;;
44486;SDS011;30191;50.908;6.962;2023-11-19T21:20:54;8.95;;;1.77;;
44486;SDS011;30191;50.908;6.962;2023-11-19T21:23:20;7.75;;;1.73;;
44486;SDS011;30191;50.908;6.962;2023-11-19T21:25:49;10.48;;;1.70;;
44486;SDS011;30191;50.908;6.962;2023-11-19T21:28:18;5.85;;;1.15;;
44486;SDS011;30191;50.908;6.962;2023-11-19T21:30:44;8.10;;;1.25;;
44486;SDS011;30191;50.908;6.962;2023-11-19T21:33:10;8.65;;;2.72;;
44486;SDS011;30191;50.908;6.962;2023-11-19T21:35:38;11.15;;;1.60;;
44486;SDS011;30191;50.908;6.962;2023-11-19T21:38:04;9.63;;;1.50;;
44486;SDS011;30191;50.908;6.962;2023-11-19T21:40:30;10.80;;;1.85;;
44486;SDS011;30191;50.908;6.962;2023-11-19T21:42:56;6.40;;;1.77;;
44486;SDS011;30191;50.908;6.962;2023-11-19T21:45:23;6.78;;;1.30;;
44486;SDS011;30191;50.908;6.962;2023-11-19T21:47:50;5.47;;;1.45;;
44486;SDS011;30191;50.908;6.962;2023-11-19T21:50:15;6.38;;;1.30;;
44486;SDS011;30191;50.908;6.962;2023-11-19T21:52:41;8.73;;;1.35;;
44486;SDS011;30191;50.908;6.962;2023-11-19T21:55:07;9.15;;;1.67;;
44486;SDS011;30191;50.908;6.962;2023-11-19T21:57:34;7.47;;;1.08;;
44486;SDS011;30191;50.908;6.962;2023-11-19T22:00:00;8.52;;;1.30;;
44486;SDS011;30191;50.908;6.962;2023-11-19T22:02:25;5.35;;;1.30;;
44486;SDS011;30191;50.908;6.962;2023-11-19T22:04:51;4.38;;;1.17;;
44486;SDS011;30191;50.908;6.962;2023-11-19T22:07:17;8.10;;;1.45;;
44486;SDS011;30191;50.908;6.962;2023-11-19T22:09:43;6.55;;;1.30;;
44486;SDS011;30191;50.908;6.962;2023-11-19T22:12:09;6.75;;;1.20;;
44486;SDS011;30191;50.908;6.962;2023-11-19T22:14:35;4.47;;;1.05;;
44486;SDS011;30191;50.908;6.962;2023-11-19T22:17:02;7.93;;;1.40;;
44486;SDS011;30191;50.908;6.962;2023-11-19T22:19:28;7.88;;;2.53;;
44486;SDS011;30191;50.908;6.962;2023-11-19T22:21:55;7.80;;;1.30;;
44486;SDS011;30191;50.908;6.962;2023-11-19T22:24:20;5.13;;;1.15;;
44486;SDS011;30191;50.908;6.962;2023-11-19T22:26:46;5.82;;;1.23;;
44486;SDS011;30191;50.908;6.962;2023-11-19T22:29:12;6.05;;;1.02;;
44486;SDS011;30191;50.908;6.962;2023-11-19T22:31:38;6.80;;;1.42;;
44486;SDS011;30191;50.908;6.962;2023-11-19T22:34:03;5.43;;;1.15;;
44486;SDS011;30191;50.908;6.962;2023-11-19T22:36:29;3.58;;;0.90;;
44486;SDS011;30191;50.908;6.962;2023-11-19T22:38:55;4.38;;;0.85;;
44486;SDS011;30191;50.908;6.962;2023-11-19T22:41:22;4.75;;;1.83;;
44486;SDS011;30191;50.908;6.962;2023-11-19T22:43:48;4.78;;;1.25;;
44486;SDS011;30191;50.908;6.962;2023-11-19T22:46:13;6.10;;;1.25;;
44486;SDS011;30191;50.908;6.962;2023-11-19T22:48:39;5.90;;;1.48;;
44486;SDS011;30191;50.908;6.962;2023-11-19T22:51:05;4.38;;;0.90;;
44486;SDS011;30191;50.908;6.962;2023-11-19T22:53:31;4.20;;;1.05;;
44486;SDS011;30191;50.908;6.962;2023-11-19T22:55:57;5.40;;;1.20;;
44486;SDS011;30191;50.908;6.962;2023-11-19T22:58:23;3.83;;;1.13;;
44486;SDS011;30191;50.908;6.962;2023-11-19T23:00:48;4.07;;;1.10;;
44486;SDS011;30191;50.908;6.962;2023-11-19T23:03:15;3.53;;;1.00;;
44486;SDS011;30191;50.908;6.962;2023-11-19T23:05:41;4.03;;;0.90;;
44486;SDS011;30191;50.908;6.962;2023-11-19T23:08:07;3.20;;;0.80;;
44486;SDS011;30191;50.908;6.962;2023-11-19T23:10:35;3.33;;;0.88;;
44486;SDS011;30191;50.908;6.962;2023-11-19T23:13:01;3.85;;;0.93;;
44486;SDS011;30191;50.908;6.962;2023-11-19T23:15:28;6.18;;;1.65;;
44486;SDS011;30191;50.908;6.962;2023-11-19T23:17:55;3.38;;;0.77;;
44486;SDS011;30191;50.908;6.962;2023-11-19T23:20:21;6.10;;;1.13;;
44486;SDS011;30191;50.908;6.962;2023-11-19T23:22:48;2.17;;;0.90;;
44486;SDS011;30191;50.908;6.962;2023-11-19T23:25:14;5.60;;;1.40;;
44486;SDS011;30191;50.908;6.962;2023-11-19T23:27:39;8.73;;;1.80;;
44486;SDS011;30191;50.908;6.962;2023-11-19T23:30:06;5.68;;;1.27;;
44486;SDS011;30191;50.908;6.962;2023-11-19T23:32:32;5.45;;;1.40;;
44486;SDS011;30191;50.908;6.962;2023-11-19T23:34:59;5.07;;;1.13;;
44486;SDS011;30191;50.908;6.962;2023-11-19T23:37:25;3.85;;;1.05;;
44486;SDS011;30191;50.908;6.962;2023-11-19T23:39:50;7.88;;;1.33;;
44486;SDS011;30191;50.908;6.962;2023-11-19T23:42:16;8.75;;;1.60;;
44486;SDS011;30191;50.908;6.962;2023-11-19T23:44:42;8.15;;;1.30;;
44486;SDS011;30191;50.908;6.962;2023-11-19T23:47:08;9.73;;;1.70;;
44486;SDS011;30191;50.908;6.962;2023-11-19T23:49:34;6.18;;;1.15;;
44486;SDS011;30191;50.908;6.962;2023-11-19T23:51:59;6.45;;;1.45;;
44486;SDS011;30191;50.908;6.962;2023-11-19T23:54:28;7.00;;;1.23;;
44486;SDS011;30191;50.908;6.962;2023-11-19T23:56:54;5.57;;;1.38;;
44486;SDS011;30191;50.908;6.962;2023-11-19T23:59:20;5.32;;;1.15;;
